createdAt,value
2019-05-23T00:03:55.683Z,4.63
2019-05-23T00:09:00.698Z,3.90
2019-05-23T00:14:18.217Z,4.03
2019-05-23T00:19:24.133Z,3.97
2019-05-23T00:24:30.781Z,3.27
2019-05-23T00:29:36.006Z,3.40
2019-05-23T00:34:43.014Z,3.60
2019-05-23T00:39:48.363Z,2.87
2019-05-23T00:44:53.981Z,2.93
2019-05-23T00:49:59.499Z,4.20
2019-05-23T00:55:06.240Z,7.20
2019-05-23T01:00:14.979Z,3.30
2019-05-23T01:05:20.728Z,3.23
2019-05-23T01:10:26.905Z,3.70
2019-05-23T01:15:32.988Z,3.30
2019-05-23T01:20:59.834Z,3.23
2019-05-23T01:26:06.385Z,2.87
2019-05-23T01:31:15.728Z,3.50
2019-05-23T01:36:21.173Z,3.47
2019-05-23T01:41:26.765Z,3.27
2019-05-23T01:46:31.974Z,3.70
2019-05-23T01:51:40.317Z,3.53
2019-05-23T01:56:45.811Z,2.53
2019-05-23T02:01:52.171Z,4.20
2019-05-23T02:06:57.775Z,3.40
2019-05-23T02:12:04.297Z,2.47
2019-05-23T02:17:11.459Z,3.33
2019-05-23T02:22:18.631Z,3.57
2019-05-23T02:27:25.500Z,3.43
2019-05-23T02:32:30.887Z,2.53
2019-05-23T02:37:50.964Z,2.67
2019-05-23T02:42:59.676Z,3.03
2019-05-23T02:48:11.833Z,3.73
2019-05-23T02:53:19.959Z,3.57
2019-05-23T02:58:31.555Z,2.80
2019-05-23T03:03:37.274Z,2.70
2019-05-23T03:08:44.026Z,2.90
2019-05-23T03:13:52.040Z,2.43
2019-05-23T03:19:01.222Z,2.83
2019-05-23T03:24:08.259Z,4.70
2019-05-23T03:29:13.383Z,2.90
2019-05-23T03:34:21.497Z,2.97
2019-05-23T03:39:27.668Z,3.37
2019-05-23T03:44:34.530Z,3.63
2019-05-23T03:49:40.195Z,2.93
2019-05-23T03:54:47.245Z,2.53
2019-05-23T03:59:52.600Z,3.50
2019-05-23T04:04:59.891Z,3.17
2019-05-23T04:10:07.142Z,2.60
2019-05-23T04:15:13.214Z,3.27
2019-05-23T04:20:19.004Z,4.00
2019-05-23T04:25:24.204Z,2.83
2019-05-23T04:30:29.713Z,3.23
2019-05-23T04:35:35.131Z,4.23
2019-05-23T04:40:40.371Z,4.50
2019-05-23T04:45:45.366Z,4.20
2019-05-23T04:50:50.258Z,3.53
2019-05-23T04:55:55.285Z,5.47
2019-05-23T05:01:02.289Z,4.40
2019-05-23T05:06:08.105Z,5.07
2019-05-23T05:11:16.809Z,4.37
2019-05-23T05:16:22.622Z,2.63
2019-05-23T05:21:28.311Z,3.30
2019-05-23T05:26:33.843Z,3.50
2019-05-23T05:31:39.277Z,2.80
2019-05-23T05:36:44.757Z,1.70
2019-05-23T05:41:50.533Z,2.10
2019-05-23T05:46:55.896Z,2.60
2019-05-23T05:52:01.714Z,2.67
2019-05-23T05:57:07.418Z,2.67
2019-05-23T06:02:14.246Z,2.10
2019-05-23T06:07:27.659Z,2.17
2019-05-23T06:12:33.390Z,3.23
2019-05-23T06:17:38.928Z,2.53
2019-05-23T06:22:46.330Z,2.47
2019-05-23T06:27:51.972Z,2.60
2019-05-23T06:32:57.542Z,5.73
2019-05-23T06:38:02.721Z,3.23
2019-05-23T06:43:08.578Z,3.13
2019-05-23T06:48:16.158Z,3.23
2019-05-23T06:53:21.297Z,4.47
2019-05-23T06:58:27.725Z,3.47
2019-05-23T07:03:42.488Z,3.50
2019-05-23T07:08:40.058Z,3.57
2019-05-23T07:13:46.797Z,2.97
2019-05-23T07:18:51.926Z,4.73
2019-05-23T07:23:57.673Z,6.97
2019-05-23T07:29:05.449Z,3.90
2019-05-23T07:34:11.182Z,4.23
2019-05-23T07:39:18.163Z,4.50
2019-05-23T07:44:24.528Z,4.63
2019-05-23T07:49:31.353Z,6.00
2019-05-23T07:54:42.007Z,6.57
2019-05-23T07:59:47.997Z,6.50
2019-05-23T08:04:53.679Z,5.60
2019-05-23T08:09:59.281Z,5.17
2019-05-23T08:15:05.355Z,6.17
2019-05-23T08:20:12.477Z,5.57
2019-05-23T08:25:17.677Z,3.60
2019-05-23T08:30:22.831Z,2.87
2019-05-23T08:35:28.264Z,3.30
2019-05-23T08:40:34.059Z,2.67
2019-05-23T08:45:39.400Z,2.83
2019-05-23T08:50:44.537Z,3.03
2019-05-23T08:55:50.149Z,2.83
2019-05-23T09:00:55.628Z,2.70
2019-05-23T09:06:01.988Z,3.47
2019-05-23T09:11:07.009Z,3.50
2019-05-23T09:16:12.472Z,3.40
2019-05-23T09:21:17.917Z,3.00
2019-05-23T09:26:23.675Z,2.80
2019-05-23T09:31:30.586Z,2.37
2019-05-23T09:36:36.312Z,3.80
2019-05-23T09:41:42.291Z,1.53
2019-05-23T09:46:48.153Z,2.90
2019-05-23T09:51:56.885Z,1.87
2019-05-23T09:57:00.215Z,2.83
2019-05-23T10:02:05.810Z,2.43
2019-05-23T10:07:11.491Z,3.57
2019-05-23T10:12:17.145Z,2.03
2019-05-23T10:17:22.629Z,2.90
2019-05-23T10:22:27.898Z,3.27
2019-05-23T10:27:33.246Z,1.80
2019-05-23T10:32:38.370Z,1.83
2019-05-23T10:37:44.412Z,1.30
2019-05-23T10:42:49.370Z,1.93
2019-05-23T10:47:54.282Z,2.13
2019-05-23T10:52:59.193Z,2.03
2019-05-23T10:58:04.770Z,1.87
2019-05-23T11:03:14.301Z,1.23
2019-05-23T11:08:20.757Z,1.80
2019-05-23T11:13:26.002Z,1.10
2019-05-23T11:18:31.262Z,1.40
2019-05-23T11:23:41.469Z,3.10
2019-05-23T11:28:46.705Z,1.43
2019-05-23T11:33:51.835Z,2.43
2019-05-23T11:38:56.765Z,1.20
2019-05-23T11:44:02.696Z,1.30
2019-05-23T11:49:08.471Z,1.80
2019-05-23T11:54:14.177Z,1.47
2019-05-23T11:59:19.133Z,1.73
2019-05-23T12:04:28.407Z,2.07
2019-05-23T12:09:34.233Z,1.90
2019-05-23T12:14:40.318Z,3.10
2019-05-23T12:19:45.950Z,2.13
2019-05-23T12:24:51.154Z,2.77
2019-05-23T12:29:57.091Z,1.57
2019-05-23T12:35:11.724Z,2.03
2019-05-23T12:40:11.633Z,2.10
2019-05-23T12:45:19.644Z,1.40
2019-05-23T12:50:28.383Z,1.30
2019-05-23T12:55:33.438Z,1.13
2019-05-23T13:00:47.305Z,1.97
2019-05-23T13:05:52.959Z,2.20
2019-05-23T13:10:58.215Z,1.57
2019-05-23T13:16:03.783Z,1.97
2019-05-23T13:21:08.807Z,1.30
2019-05-23T13:26:14.061Z,1.57
2019-05-23T13:31:19.037Z,2.63
2019-05-23T13:36:24.413Z,1.20
2019-05-23T13:41:29.669Z,1.73
2019-05-23T13:46:34.817Z,1.33
2019-05-23T13:51:39.852Z,1.10
2019-05-23T13:56:47.858Z,1.47
2019-05-23T14:01:52.322Z,3.47
2019-05-23T14:06:57.555Z,2.63
2019-05-23T14:17:23.999Z,1.40
2019-05-23T14:22:31.003Z,2.20
2019-05-23T14:27:56.944Z,1.87
2019-05-23T14:33:04.101Z,1.20
2019-05-23T14:38:29.147Z,1.33
2019-05-23T14:43:22.375Z,1.90
2019-05-23T14:48:37.651Z,1.43
2019-05-23T14:53:46.246Z,2.33
2019-05-23T14:58:51.912Z,1.50
2019-05-23T15:03:57.346Z,1.60
2019-05-23T15:09:02.370Z,1.10
2019-05-23T15:14:07.757Z,1.23
2019-05-23T15:19:13.010Z,1.30
2019-05-23T15:24:18.354Z,3.90
2019-05-23T15:29:23.380Z,0.60
2019-05-23T15:34:28.654Z,1.20
2019-05-23T15:39:33.815Z,1.43
2019-05-23T15:44:39.393Z,0.70
2019-05-23T15:49:46.735Z,1.50
2019-05-23T15:54:56.073Z,0.97
2019-05-23T16:00:18.028Z,2.20
2019-05-23T16:05:23.956Z,0.73
2019-05-23T16:10:29.958Z,1.20
2019-05-23T16:15:35.832Z,0.93
2019-05-23T16:20:40.855Z,0.77
2019-05-23T16:25:46.542Z,0.57
2019-05-23T16:30:51.885Z,1.93
2019-05-23T16:35:57.056Z,1.00
2019-05-23T16:41:02.169Z,1.17
2019-05-23T16:46:07.734Z,0.87
2019-05-23T16:51:12.775Z,0.80
2019-05-23T16:56:26.490Z,1.00
2019-05-23T17:01:57.053Z,0.80
2019-05-23T17:06:59.462Z,1.93
2019-05-23T17:12:39.006Z,1.83
2019-05-23T17:18:18.327Z,1.00
2019-05-23T17:23:48.598Z,1.10
2019-05-23T17:28:54.685Z,1.47
2019-05-23T17:33:59.945Z,1.17
2019-05-23T17:39:08.474Z,1.70
2019-05-23T17:44:13.724Z,1.03
2019-05-23T17:49:18.917Z,1.30
2019-05-23T17:54:24.892Z,1.77
2019-05-23T17:59:30.351Z,0.70
2019-05-23T18:04:36.221Z,1.23
2019-05-23T18:09:41.426Z,0.87
2019-05-23T18:14:46.669Z,1.03
2019-05-23T18:25:13.113Z,1.20
2019-05-23T18:30:43.960Z,2.03
2019-05-23T18:35:49.190Z,0.73
2019-05-23T18:41:03.141Z,1.27
2019-05-23T18:46:07.403Z,1.87
2019-05-23T18:51:12.713Z,1.20
2019-05-23T18:56:17.796Z,1.63
2019-05-23T19:01:26.969Z,1.63
2019-05-23T19:06:32.822Z,1.10
2019-05-23T19:11:39.362Z,1.60
2019-05-23T19:16:44.456Z,1.60
2019-05-23T19:21:53.068Z,2.13
2019-05-23T19:26:59.769Z,2.33
2019-05-23T19:32:05.068Z,1.87
2019-05-23T19:37:11.101Z,1.87
2019-05-23T19:42:18.053Z,1.43
2019-05-23T19:47:23.534Z,1.40
2019-05-23T19:52:29.005Z,1.50
2019-05-23T19:57:34.491Z,2.00
2019-05-23T20:02:45.871Z,3.00
2019-05-23T20:07:51.738Z,2.17
2019-05-23T20:12:56.714Z,2.10
2019-05-23T20:18:02.226Z,3.43
2019-05-23T20:23:08.033Z,1.87
2019-05-23T20:28:13.342Z,3.67
2019-05-23T20:33:18.481Z,2.27
2019-05-23T20:38:29.961Z,2.60
2019-05-23T20:43:35.144Z,1.87
2019-05-23T20:48:40.760Z,2.50
2019-05-23T20:53:45.758Z,2.67
2019-05-23T20:58:50.673Z,2.57
2019-05-23T21:03:57.448Z,1.70
2019-05-23T21:09:02.646Z,3.13
2019-05-23T21:14:07.996Z,1.87
2019-05-23T21:19:13.475Z,2.17
2019-05-23T21:24:18.472Z,2.47
2019-05-23T21:29:23.546Z,2.90
2019-05-23T21:34:28.968Z,2.10
2019-05-23T21:39:34.423Z,2.50
2019-05-23T21:44:40.059Z,2.87
2019-05-23T21:49:45.673Z,3.43
2019-05-23T21:54:50.727Z,3.40
2019-05-23T21:59:56.963Z,2.10
2019-05-23T22:05:12.661Z,2.90
2019-05-23T22:10:18.069Z,3.27
2019-05-23T22:15:36.854Z,2.27
2019-05-23T22:20:42.406Z,2.40
2019-05-23T22:25:47.733Z,3.23
2019-05-23T22:30:53.382Z,2.30
2019-05-23T22:36:00.581Z,2.60
2019-05-23T22:41:05.544Z,2.50
2019-05-23T22:46:10.768Z,2.80
2019-05-23T22:51:16.388Z,2.50
2019-05-23T22:56:21.719Z,1.87
2019-05-23T23:01:28.446Z,2.70
2019-05-23T23:06:34.586Z,2.57
2019-05-23T23:11:40.085Z,2.30
2019-05-23T23:16:45.305Z,2.33
2019-05-23T23:21:50.590Z,2.63
2019-05-23T23:26:55.831Z,2.77
2019-05-23T23:32:03.788Z,4.33
2019-05-23T23:37:08.219Z,3.07
2019-05-23T23:42:13.811Z,2.87
2019-05-23T23:47:36.824Z,2.90
2019-05-23T23:53:00.138Z,3.87
2019-05-23T23:58:04.731Z,2.33
